createdAt,value
2022-08-07T00:02:37.482Z,23.13
2022-08-07T00:05:10.459Z,22.95
2022-08-07T00:07:41.617Z,22.80
2022-08-07T00:10:26.618Z,22.71
2022-08-07T00:13:02.212Z,22.61
2022-08-07T00:15:46.418Z,22.47
2022-08-07T00:18:24.426Z,22.49
2022-08-07T00:20:57.584Z,22.33
2022-08-07T00:23:32.670Z,22.49
2022-08-07T00:26:18.512Z,22.44
2022-08-07T00:28:58.386Z,22.41
2022-08-07T00:31:37.382Z,22.33
2022-08-07T00:34:11.546Z,22.27
2022-08-07T00:36:43.286Z,22.15
2022-08-07T00:39:16.644Z,22.18
2022-08-07T00:42:04.896Z,22.18
2022-08-07T00:44:38.375Z,22.22
2022-08-07T00:47:15.918Z,22.26
2022-08-07T00:50:19.215Z,22.25
2022-08-07T00:52:53.038Z,22.23
2022-08-07T00:55:46.583Z,22.28
2022-08-07T00:58:16.250Z,22.21
2022-08-07T01:00:53.652Z,22.18
2022-08-07T01:03:54.898Z,22.21
2022-08-07T01:06:15.785Z,22.24
2022-08-07T01:08:53.297Z,22.12
2022-08-07T01:12:08.978Z,22.24
2022-08-07T01:14:21.231Z,22.32
2022-08-07T01:17:00.262Z,22.29
2022-08-07T01:19:38.555Z,22.36
2022-08-07T01:22:16.240Z,22.39
2022-08-07T01:24:53.656Z,22.47
2022-08-07T01:27:32.319Z,22.49
2022-08-07T01:30:02.871Z,22.44
2022-08-07T01:32:35.475Z,22.45
2022-08-07T01:35:05.911Z,22.40
2022-08-07T01:37:42.090Z,22.45
2022-08-07T01:40:14.838Z,22.44
2022-08-07T01:42:57.341Z,22.48
2022-08-07T01:45:36.464Z,22.62
2022-08-07T01:48:18.090Z,22.64
2022-08-07T01:50:57.344Z,22.60
2022-08-07T01:54:12.266Z,22.65
2022-08-07T01:56:29.145Z,22.81
2022-08-07T01:59:15.751Z,22.53
2022-08-07T02:02:00.047Z,22.34
2022-08-07T02:04:40.033Z,22.16
2022-08-07T02:07:45.131Z,21.85
2022-08-07T02:10:29.742Z,21.77
2022-08-07T02:13:02.702Z,21.66
2022-08-07T02:15:33.979Z,21.28
2022-08-07T02:18:06.720Z,21.32
2022-08-07T02:20:39.892Z,21.25
2022-08-07T02:23:11.729Z,21.23
2022-08-07T02:26:31.905Z,21.25
2022-08-07T02:28:39.897Z,21.08
2022-08-07T02:31:28.239Z,20.97
2022-08-07T02:34:03.773Z,20.82
2022-08-07T02:36:36.013Z,20.77
2022-08-07T02:39:16.331Z,20.88
2022-08-07T02:41:54.815Z,20.88
2022-08-07T02:44:34.360Z,20.92
2022-08-07T02:47:06.620Z,20.92
2022-08-07T02:49:57.965Z,20.94
2022-08-07T02:52:32.651Z,21.03
2022-08-07T02:55:27.294Z,21.10
2022-08-07T02:58:06.054Z,21.15
2022-08-07T03:00:47.377Z,21.16
2022-08-07T03:03:22.590Z,21.16
2022-08-07T03:05:55.638Z,21.14
2022-08-07T03:08:29.303Z,21.16
2022-08-07T03:11:00.784Z,21.11
2022-08-07T03:13:39.126Z,21.16
2022-08-07T03:16:22.967Z,21.10
2022-08-07T03:18:58.542Z,21.11
2022-08-07T03:21:33.029Z,21.04
2022-08-07T03:24:20.341Z,20.98
2022-08-07T03:26:58.209Z,20.96
2022-08-07T03:29:36.600Z,20.93
2022-08-07T03:32:13.109Z,20.89
2022-08-07T03:34:47.503Z,20.79
2022-08-07T03:37:46.376Z,20.75
2022-08-07T03:40:27.506Z,20.74
2022-08-07T03:43:01.666Z,20.71
2022-08-07T03:45:39.671Z,20.72
2022-08-07T03:48:13.870Z,20.77
2022-08-07T03:50:55.675Z,20.81
2022-08-07T03:54:01.988Z,20.82
2022-08-07T03:56:33.472Z,20.83
2022-08-07T03:59:10.054Z,20.82
2022-08-07T04:01:49.050Z,20.78
2022-08-07T04:04:19.860Z,20.76
2022-08-07T04:06:50.809Z,20.77
2022-08-07T04:09:23.689Z,20.77
2022-08-07T04:12:24.947Z,20.77
2022-08-07T04:14:49.087Z,20.85
2022-08-07T04:17:23.715Z,20.90
2022-08-07T04:20:15.502Z,20.88
2022-08-07T04:22:53.363Z,20.90
2022-08-07T04:25:39.004Z,21.00
2022-08-07T04:28:13.514Z,21.10
2022-08-07T04:30:56.791Z,21.09
2022-08-07T04:33:30.997Z,21.26
2022-08-07T04:36:06.400Z,21.39
2022-08-07T04:38:37.597Z,21.47
2022-08-07T04:41:08.307Z,21.52
2022-08-07T04:44:09.750Z,21.58
2022-08-07T04:46:59.731Z,21.65
2022-08-07T04:49:57.353Z,21.63
2022-08-07T04:52:50.991Z,21.77
2022-08-07T04:58:11.157Z,21.94
2022-08-07T04:58:47.470Z,22.01
2022-08-07T05:01:20.978Z,22.17
2022-08-07T05:04:12.347Z,22.34
2022-08-07T05:06:57.701Z,22.53
2022-08-07T05:09:45.938Z,22.70
2022-08-07T05:12:27.292Z,22.88
2022-08-07T05:15:23.392Z,22.89
2022-08-07T05:18:00.462Z,23.27
2022-08-07T05:20:37.801Z,23.49
2022-08-07T05:23:15.485Z,23.93
2022-08-07T05:26:11.883Z,24.21
2022-08-07T05:28:40.455Z,24.12
2022-08-07T05:31:14.519Z,24.00
2022-08-07T05:33:51.340Z,24.18
2022-08-07T05:36:36.364Z,24.15
2022-08-07T05:40:14.104Z,24.11
2022-08-07T05:42:07.507Z,24.06
2022-08-07T05:44:46.461Z,23.86
2022-08-07T05:47:20.935Z,23.61
2022-08-07T05:50:10.673Z,23.62
2022-08-07T05:52:42.644Z,23.60
2022-08-07T05:55:15.593Z,24.12
2022-08-07T05:57:46.481Z,25.21
2022-08-07T06:00:19.846Z,25.41
2022-08-07T06:02:53.363Z,25.45
2022-08-07T06:05:28.343Z,26.06
2022-08-07T06:08:13.170Z,26.72
2022-08-07T06:10:54.934Z,27.57
2022-08-07T06:14:10.338Z,28.24
2022-08-07T06:16:17.902Z,29.01
2022-08-07T06:18:51.945Z,29.28
2022-08-07T06:22:16.443Z,29.78
2022-08-07T06:24:45.530Z,30.11
2022-08-07T06:27:09.798Z,30.44
2022-08-07T06:29:40.450Z,30.40
2022-08-07T06:32:10.744Z,29.73
2022-08-07T06:34:45.360Z,28.83
2022-08-07T06:37:17.014Z,29.07
2022-08-07T06:40:16.097Z,28.10
2022-08-07T06:42:43.346Z,28.43
2022-08-07T06:45:18.653Z,28.17
2022-08-07T06:47:58.648Z,28.06
2022-08-07T06:50:30.623Z,28.95
2022-08-07T06:53:04.104Z,29.51
2022-08-07T06:55:53.745Z,30.34
2022-08-07T06:58:32.276Z,31.01
2022-08-07T07:01:03.169Z,30.66
2022-08-07T07:03:48.708Z,30.45
2022-08-07T07:06:23.957Z,31.10
2022-08-07T07:08:58.058Z,30.30
2022-08-07T07:12:09.167Z,30.20
2022-08-07T07:14:28.088Z,30.25
2022-08-07T07:17:06.025Z,30.79
2022-08-07T07:19:57.223Z,30.86
2022-08-07T07:22:35.895Z,30.98
2022-08-07T07:26:31.454Z,31.00
2022-08-07T07:28:07.537Z,31.37
2022-08-07T07:31:02.055Z,31.99
2022-08-07T07:33:36.845Z,31.27
2022-08-07T07:36:13.151Z,30.31
2022-08-07T07:38:46.176Z,29.67
2022-08-07T07:41:19.456Z,30.27
2022-08-07T07:44:17.558Z,30.37
2022-08-07T07:46:55.352Z,29.17
2022-08-07T07:50:33.756Z,28.59
2022-08-07T07:52:24.879Z,29.39
2022-08-07T07:54:57.316Z,30.13
2022-08-07T07:57:51.480Z,29.69
2022-08-07T08:00:29.757Z,30.20
2022-08-07T08:03:09.407Z,29.81
2022-08-07T08:05:54.276Z,30.50
2022-08-07T08:08:37.042Z,29.62
2022-08-07T08:11:13.846Z,30.25
2022-08-07T08:13:53.989Z,29.96
2022-08-07T08:16:30.943Z,30.68
2022-08-07T08:19:17.341Z,31.18
2022-08-07T08:22:10.578Z,30.12
2022-08-07T08:25:04.719Z,30.23
2022-08-07T08:27:56.911Z,30.59
2022-08-07T08:30:34.803Z,30.14
2022-08-07T08:33:15.376Z,30.45
2022-08-07T08:35:52.002Z,30.17
2022-08-07T08:38:29.365Z,30.87
2022-08-07T08:41:05.495Z,31.74
2022-08-07T08:43:50.456Z,31.04
2022-08-07T08:46:40.636Z,31.10
2022-08-07T08:49:33.618Z,30.92
2022-08-07T08:52:25.121Z,30.93
2022-08-07T08:55:07.686Z,31.08
2022-08-07T08:57:43.009Z,31.24
2022-08-07T09:00:17.040Z,30.81
2022-08-07T09:02:59.340Z,30.37
2022-08-07T09:05:42.035Z,30.22
2022-08-07T09:08:28.831Z,29.36
2022-08-07T09:11:14.078Z,30.01
2022-08-07T09:14:06.971Z,30.50
2022-08-07T09:16:51.549Z,31.17
2022-08-07T09:19:51.378Z,30.85
2022-08-07T09:24:34.985Z,30.48
2022-08-07T09:25:42.616Z,30.10
2022-08-07T09:30:05.933Z,30.42
2022-08-07T09:31:38.835Z,30.25
2022-08-07T09:34:21.680Z,30.34
2022-08-07T09:37:04.728Z,30.54
2022-08-07T09:39:55.163Z,30.73
2022-08-07T09:42:45.849Z,30.44
2022-08-07T09:47:51.359Z,30.40
2022-08-07T09:48:28.730Z,30.80
2022-08-07T09:52:09.376Z,31.32
2022-08-07T09:54:11.664Z,31.24
2022-08-07T09:57:13.627Z,30.68
2022-08-07T10:00:02.057Z,30.54
2022-08-07T10:03:08.166Z,30.43
2022-08-07T10:06:17.277Z,30.02
2022-08-07T10:09:07.387Z,30.49
2022-08-07T10:12:15.488Z,30.52
2022-08-07T10:15:21.770Z,30.65
2022-08-07T10:18:17.468Z,30.93
2022-08-07T10:21:19.639Z,31.50
2022-08-07T10:24:21.504Z,30.91
2022-08-07T10:27:10.458Z,30.79
2022-08-07T10:30:04.357Z,31.22
2022-08-07T10:33:14.832Z,30.48
2022-08-07T10:36:11.449Z,30.98
2022-08-07T10:38:54.820Z,30.47
2022-08-07T10:41:51.537Z,30.26
2022-08-07T10:44:38.459Z,30.68
2022-08-07T10:47:27.043Z,30.66
2022-08-07T10:50:25.925Z,31.37
2022-08-07T10:53:08.181Z,30.73
2022-08-07T10:55:46.920Z,31.29
2022-08-07T10:58:36.643Z,31.21
2022-08-07T11:01:23.977Z,31.21
2022-08-07T11:04:23.115Z,31.15
2022-08-07T11:07:15.023Z,31.57
2022-08-07T11:10:08.443Z,31.69
2022-08-07T11:12:49.719Z,31.89
2022-08-07T11:15:37.213Z,31.88
2022-08-07T11:18:13.189Z,31.19
2022-08-07T11:20:51.355Z,31.95
2022-08-07T11:23:38.720Z,31.79
2022-08-07T11:26:16.390Z,32.19
2022-08-07T11:28:55.618Z,31.97
2022-08-07T11:31:35.505Z,31.54
2022-08-07T11:34:16.502Z,31.64
2022-08-07T11:37:00.456Z,31.88
2022-08-07T11:40:00.087Z,31.16
2022-08-07T11:42:43.975Z,31.17
2022-08-07T11:45:35.318Z,31.55
2022-08-07T11:48:29.740Z,31.22
2022-08-07T11:51:41.684Z,31.81
2022-08-07T11:54:25.365Z,30.97
2022-08-07T11:57:12.848Z,30.82
2022-08-07T12:00:10.778Z,31.43
2022-08-07T12:03:45.120Z,31.24
2022-08-07T12:06:39.049Z,31.67
2022-08-07T12:09:23.583Z,31.38
2022-08-07T12:12:10.434Z,31.56
2022-08-07T12:14:55.426Z,31.74
2022-08-07T12:17:58.740Z,31.74
2022-08-07T12:20:36.551Z,31.94
2022-08-07T12:24:05.479Z,31.39
2022-08-07T12:26:49.167Z,30.74
2022-08-07T12:29:37.908Z,30.94
2022-08-07T12:32:17.230Z,30.91
2022-08-07T12:34:53.445Z,31.13
2022-08-07T12:38:09.784Z,31.17
2022-08-07T12:40:47.595Z,31.45
2022-08-07T12:44:02.415Z,31.42
2022-08-07T12:46:32.280Z,31.77
2022-08-07T12:49:25.551Z,31.43
2022-08-07T12:52:17.930Z,31.26
2022-08-07T12:55:03.811Z,31.62
2022-08-07T12:58:01.306Z,31.72
2022-08-07T13:00:49.486Z,31.68
2022-08-07T13:04:02.597Z,31.63
2022-08-07T13:07:02.634Z,31.80
2022-08-07T13:10:19.470Z,31.36
2022-08-07T13:12:54.552Z,31.68
2022-08-07T13:15:51.185Z,31.95
2022-08-07T13:18:34.249Z,31.41
2022-08-07T13:21:10.836Z,31.41
2022-08-07T13:24:02.258Z,31.48
2022-08-07T13:26:46.214Z,31.45
2022-08-07T13:29:22.230Z,31.25
2022-08-07T13:32:00.206Z,31.28
2022-08-07T13:34:57.530Z,31.05
2022-08-07T13:37:34.875Z,30.97
2022-08-07T13:40:36.459Z,31.01
2022-08-07T13:43:11.884Z,31.16
2022-08-07T13:46:20.656Z,31.27
2022-08-07T13:48:41.859Z,30.78
2022-08-07T13:52:19.064Z,31.05
2022-08-07T13:54:23.496Z,30.91
2022-08-07T13:56:59.863Z,30.82
2022-08-07T13:59:34.169Z,30.66
2022-08-07T14:02:12.915Z,30.53
2022-08-07T14:04:54.982Z,30.70
2022-08-07T14:07:33.547Z,30.64
2022-08-07T14:10:17.560Z,30.90
2022-08-07T14:12:58.736Z,31.08
2022-08-07T14:15:35.104Z,30.70
2022-08-07T14:18:23.663Z,30.75
2022-08-07T14:21:08.310Z,30.88
2022-08-07T14:24:01.944Z,30.45
2022-08-07T14:26:50.679Z,30.38
2022-08-07T14:30:09.731Z,30.65
2022-08-07T14:32:17.482Z,30.43
2022-08-07T14:34:52.520Z,30.69
2022-08-07T14:37:39.291Z,30.77
2022-08-07T14:40:26.358Z,30.89
2022-08-07T14:43:58.386Z,30.85
2022-08-07T14:45:56.097Z,30.58
2022-08-07T14:48:33.061Z,30.82
2022-08-07T14:51:15.619Z,30.61
2022-08-07T14:54:05.851Z,30.84
2022-08-07T14:56:44.415Z,30.93
2022-08-07T15:00:04.898Z,30.59
2022-08-07T15:02:33.961Z,30.53
2022-08-07T15:05:20.253Z,30.46
2022-08-07T15:07:56.486Z,30.26
2022-08-07T15:10:30.670Z,29.99
2022-08-07T15:13:11.888Z,30.10
2022-08-07T15:16:05.388Z,30.19
2022-08-07T15:18:47.756Z,30.09
2022-08-07T15:21:59.378Z,29.94
2022-08-07T15:25:15.781Z,30.02
2022-08-07T15:27:12.000Z,29.68
2022-08-07T15:30:10.333Z,29.72
2022-08-07T15:33:01.600Z,29.66
2022-08-07T15:36:00.786Z,29.60
2022-08-07T15:38:51.742Z,29.40
2022-08-07T15:44:24.122Z,29.83
2022-08-07T15:47:03.404Z,29.58
2022-08-07T15:52:34.922Z,29.49
2022-08-07T15:55:11.592Z,29.31
2022-08-07T15:57:48.544Z,29.24
2022-08-07T16:00:22.728Z,29.21
2022-08-07T16:03:21.706Z,29.38
2022-08-07T16:05:59.337Z,29.25
2022-08-07T16:08:38.859Z,29.08
2022-08-07T16:11:26.458Z,29.00
2022-08-07T16:14:19.090Z,28.97
2022-08-07T16:17:15.349Z,29.03
2022-08-07T16:20:33.418Z,28.87
2022-08-07T16:23:52.941Z,29.07
2022-08-07T16:26:59.338Z,29.12
2022-08-07T16:30:10.722Z,28.93
2022-08-07T16:32:54.303Z,28.72
2022-08-07T16:35:56.662Z,28.58
2022-08-07T16:39:02.188Z,28.74
2022-08-07T16:45:14.779Z,28.36
2022-08-07T16:48:28.531Z,28.28
2022-08-07T16:51:57.546Z,28.31
2022-08-07T16:54:19.343Z,28.02
2022-08-07T16:57:05.085Z,27.93
2022-08-07T16:59:58.144Z,27.81
2022-08-07T17:02:51.503Z,27.74
2022-08-07T17:05:41.563Z,27.89
2022-08-07T17:09:08.587Z,27.91
2022-08-07T17:12:04.139Z,27.90
2022-08-07T17:14:44.857Z,27.68
2022-08-07T17:17:44.123Z,27.27
2022-08-07T17:20:33.158Z,27.28
2022-08-07T17:23:12.902Z,27.30
2022-08-07T17:25:56.454Z,26.95
2022-08-07T17:28:38.350Z,26.91
2022-08-07T17:31:16.353Z,26.82
2022-08-07T17:34:17.914Z,26.72
2022-08-07T17:36:57.428Z,26.58
2022-08-07T17:39:58.943Z,26.39
2022-08-07T17:42:59.606Z,26.22
2022-08-07T17:45:43.103Z,26.21
2022-08-07T17:48:30.838Z,26.30
2022-08-07T17:51:11.562Z,26.21
2022-08-07T17:54:00.983Z,26.10
2022-08-07T17:56:35.917Z,26.07
2022-08-07T17:59:20.914Z,25.83
2022-08-07T18:02:00.739Z,25.94
2022-08-07T18:04:39.838Z,25.89
2022-08-07T18:07:28.689Z,25.64
2022-08-07T18:10:29.109Z,25.70
2022-08-07T18:13:40.662Z,25.55
2022-08-07T18:16:30.984Z,25.58
2022-08-07T18:21:11.945Z,25.42
2022-08-07T18:22:15.082Z,25.35
2022-08-07T18:24:51.697Z,25.21
2022-08-07T18:28:03.695Z,25.38
2022-08-07T18:30:54.372Z,25.31
2022-08-07T18:33:54.790Z,25.21
2022-08-07T18:36:35.066Z,25.31
2022-08-07T18:40:05.565Z,25.28
2022-08-07T18:42:20.044Z,25.26
2022-08-07T18:45:42.964Z,25.15
2022-08-07T18:48:00.718Z,25.08
2022-08-07T18:51:16.730Z,25.07
2022-08-07T18:54:31.263Z,24.93
2022-08-07T18:57:30.138Z,24.87
2022-08-07T19:00:32.746Z,24.89
2022-08-07T19:03:11.894Z,24.88
2022-08-07T19:06:03.529Z,24.69
2022-08-07T19:08:48.066Z,24.79
2022-08-07T19:11:36.602Z,24.76
2022-08-07T19:14:20.209Z,24.68
2022-08-07T19:17:06.006Z,24.62
2022-08-07T19:19:48.832Z,24.44
2022-08-07T19:22:31.004Z,24.45
2022-08-07T19:25:06.345Z,24.38
2022-08-07T19:28:57.638Z,24.34
2022-08-07T19:30:55.808Z,24.26
2022-08-07T19:33:31.259Z,24.22
2022-08-07T19:36:08.638Z,24.21
2022-08-07T19:38:53.248Z,24.20
2022-08-07T19:41:39.000Z,24.12
2022-08-07T19:44:21.962Z,24.14
2022-08-07T19:46:58.052Z,24.17
2022-08-07T19:49:58.491Z,24.13
2022-08-07T19:52:24.614Z,24.10
2022-08-07T19:54:59.807Z,24.04
2022-08-07T19:58:02.986Z,24.02
2022-08-07T20:00:34.638Z,23.86
2022-08-07T20:03:33.810Z,23.90
2022-08-07T20:06:15.341Z,23.87
2022-08-07T20:08:48.905Z,23.83
2022-08-07T20:12:01.323Z,23.79
2022-08-07T20:14:31.438Z,23.82
2022-08-07T20:17:09.094Z,23.77
2022-08-07T20:19:48.148Z,23.73
2022-08-07T20:22:34.046Z,23.71
2022-08-07T20:25:12.519Z,23.70
2022-08-07T20:27:58.571Z,23.68
2022-08-07T20:30:36.030Z,23.64
2022-08-07T20:33:36.352Z,23.64
2022-08-07T20:36:03.846Z,23.63
2022-08-07T20:38:35.710Z,23.59
2022-08-07T20:41:25.428Z,23.55
2022-08-07T20:43:59.007Z,23.53
2022-08-07T20:46:33.382Z,23.47
2022-08-07T20:49:59.672Z,23.42
2022-08-07T20:52:01.187Z,23.42
2022-08-07T20:54:32.273Z,23.35
2022-08-07T20:57:10.173Z,23.32
2022-08-07T21:00:07.010Z,23.27
2022-08-07T21:02:54.089Z,23.23
2022-08-07T21:05:52.630Z,23.19
2022-08-07T21:08:36.599Z,23.21
2022-08-07T21:11:14.320Z,23.26
2022-08-07T21:14:20.147Z,23.30
2022-08-07T21:17:06.698Z,23.25
2022-08-07T21:19:51.798Z,23.23
2022-08-07T21:22:34.039Z,23.18
2022-08-07T21:25:14.746Z,23.16
2022-08-07T21:28:02.114Z,23.11
2022-08-07T21:30:46.482Z,23.16
2022-08-07T21:33:24.230Z,23.13
2022-08-07T21:36:31.493Z,23.07
2022-08-07T21:39:45.574Z,23.15
2022-08-07T21:42:41.946Z,23.16
2022-08-07T21:46:03.534Z,23.23
2022-08-07T21:48:29.092Z,23.27
2022-08-07T21:51:20.374Z,23.16
2022-08-07T21:53:59.388Z,23.13
2022-08-07T21:56:49.004Z,22.97
2022-08-07T22:00:02.945Z,22.95
2022-08-07T22:02:33.149Z,22.87
2022-08-07T22:05:08.113Z,22.90
2022-08-07T22:07:58.633Z,22.92
2022-08-07T22:10:33.763Z,22.91
2022-08-07T22:13:13.782Z,22.86
2022-08-07T22:16:39.329Z,22.83
2022-08-07T22:18:45.021Z,22.81
2022-08-07T22:21:21.364Z,22.81
2022-08-07T22:23:57.695Z,22.66
2022-08-07T22:26:33.709Z,22.47
2022-08-07T22:29:12.874Z,22.32
2022-08-07T22:32:06.018Z,22.19
2022-08-07T22:34:49.775Z,22.13
2022-08-07T22:38:04.190Z,22.08
2022-08-07T22:40:32.525Z,22.10
2022-08-07T22:43:10.906Z,22.10
2022-08-07T22:47:02.099Z,22.09
2022-08-07T22:49:19.022Z,22.11
2022-08-07T22:52:10.017Z,22.10
2022-08-07T22:54:58.069Z,22.09
2022-08-07T22:58:07.317Z,22.10
2022-08-07T23:00:45.197Z,22.11
2022-08-07T23:03:57.949Z,22.13
2022-08-07T23:06:49.963Z,22.14
2022-08-07T23:10:01.138Z,22.15
2022-08-07T23:12:34.047Z,22.18
2022-08-07T23:16:04.243Z,22.15
2022-08-07T23:18:34.026Z,22.09
2022-08-07T23:21:21.081Z,22.00
2022-08-07T23:24:23.789Z,21.96
2022-08-07T23:27:34.047Z,21.83
2022-08-07T23:30:38.324Z,21.67
2022-08-07T23:34:33.672Z,21.49
2022-08-07T23:37:17.567Z,21.33
2022-08-07T23:39:45.554Z,21.31
2022-08-07T23:42:23.173Z,21.24
2022-08-07T23:45:33.188Z,21.27
2022-08-07T23:48:56.192Z,21.42
2022-08-07T23:53:01.647Z,21.53
2022-08-07T23:54:44.187Z,21.54
2022-08-07T23:57:27.759Z,21.50
